Terminal Aerodrome Forecast
Issued by NWS Cleveland, OH

Home | Current Version | Previous Version | Text Only | Print | Product List | Glossary On
Versions: 1 2 3 4 5 6 7 8 9 10 11 12 13 14 15
000
FTUS41 KCLE 061732
TAFTOL
TAF
KTOL 061732Z 0618/0718 21006KT P6SM FEW045 SCT250
     FM070900 21007KT P6SM SCT100 BKN250
     FM071400 23012KT P6SM VCSH BKN035 OVC080=

USA.gov is the U.S. government's official web portal to all federal, state and local government web resources and services.